createdAt,value
2022-10-17T00:01:10.652Z,76.40
2022-10-17T00:03:40.184Z,78.59
2022-10-17T00:06:10.445Z,78.43
2022-10-17T00:08:39.434Z,78.75
2022-10-17T00:11:09.731Z,78.13
2022-10-17T00:13:38.220Z,78.86
2022-10-17T00:16:07.396Z,78.46
2022-10-17T00:18:37.241Z,78.25
2022-10-17T00:21:05.544Z,78.95
2022-10-17T00:23:35.123Z,79.72
2022-10-17T00:26:05.219Z,78.48
2022-10-17T00:28:33.957Z,78.04
2022-10-17T00:31:03.629Z,79.03
2022-10-17T00:33:32.944Z,78.95
2022-10-17T00:36:08.137Z,78.00
2022-10-17T00:38:36.907Z,77.27
2022-10-17T00:41:05.534Z,77.56
2022-10-17T00:43:55.740Z,77.66
2022-10-17T00:46:26.648Z,78.17
2022-10-17T00:48:56.518Z,77.73
2022-10-17T00:51:32.332Z,77.32
2022-10-17T00:54:01.993Z,77.10
2022-10-17T00:56:31.385Z,78.33
2022-10-17T00:58:59.598Z,79.34
2022-10-17T01:01:27.772Z,79.67
2022-10-17T01:03:56.012Z,78.97
2022-10-17T01:06:25.402Z,78.43
2022-10-17T01:08:54.097Z,78.32
2022-10-17T01:11:34.235Z,78.16
2022-10-17T01:14:07.621Z,78.64
2022-10-17T01:16:43.612Z,78.97
2022-10-17T01:19:31.889Z,79.31
2022-10-17T01:22:04.565Z,81.79
2022-10-17T01:25:16.133Z,80.88
2022-10-17T01:27:57.905Z,82.77
2022-10-17T01:30:52.908Z,83.13
2022-10-17T01:33:31.821Z,83.30
2022-10-17T01:36:07.106Z,81.43
2022-10-17T01:38:39.012Z,81.64
2022-10-17T01:41:14.866Z,81.00
2022-10-17T01:43:51.166Z,81.22
2022-10-17T01:46:26.678Z,81.45
2022-10-17T01:48:57.298Z,80.87
2022-10-17T01:51:32.573Z,80.17
2022-10-17T01:54:05.771Z,80.13
2022-10-17T01:56:37.638Z,80.64
2022-10-17T01:59:12.867Z,81.54
2022-10-17T02:01:45.615Z,83.47
2022-10-17T02:04:13.945Z,83.33
2022-10-17T02:06:42.094Z,81.75
2022-10-17T02:09:19.792Z,81.60
2022-10-17T02:11:59.853Z,81.63
2022-10-17T02:14:37.407Z,82.04
2022-10-17T02:17:15.310Z,82.79
2022-10-17T02:19:52.740Z,84.11
2022-10-17T02:22:32.104Z,84.75
2022-10-17T02:25:04.252Z,83.79
2022-10-17T02:27:42.556Z,84.42
2022-10-17T02:30:17.623Z,83.36
2022-10-17T02:32:54.432Z,82.62
2022-10-17T02:35:26.706Z,81.70
2022-10-17T02:37:56.739Z,82.27
2022-10-17T02:40:28.148Z,83.13
2022-10-17T02:42:58.081Z,82.96
2022-10-17T02:45:29.091Z,83.32
2022-10-17T02:48:04.800Z,83.98
2022-10-17T02:50:44.814Z,84.63
2022-10-17T02:53:17.153Z,85.82
2022-10-17T02:55:49.740Z,86.26
2022-10-17T02:58:22.773Z,85.62
2022-10-17T03:00:52.735Z,85.79
2022-10-17T03:03:24.745Z,86.08
2022-10-17T03:05:53.404Z,85.75
2022-10-17T03:08:22.305Z,84.68
2022-10-17T03:10:51.173Z,85.82
2022-10-17T03:13:19.648Z,85.18
2022-10-17T03:15:48.578Z,85.27
2022-10-17T03:18:16.686Z,84.89
2022-10-17T03:20:46.515Z,84.24
2022-10-17T03:23:14.796Z,84.04
2022-10-17T03:25:43.462Z,83.52
2022-10-17T03:28:13.199Z,82.90
2022-10-17T03:30:41.483Z,82.64
2022-10-17T03:33:09.629Z,82.29
2022-10-17T03:35:41.101Z,82.21
2022-10-17T03:38:10.483Z,82.29
2022-10-17T03:40:38.508Z,82.20
2022-10-17T03:43:06.978Z,82.21
2022-10-17T03:45:35.477Z,82.31
2022-10-17T03:48:03.478Z,82.51
2022-10-17T03:50:31.476Z,82.50
2022-10-17T03:52:59.713Z,82.24
2022-10-17T03:55:29.246Z,83.27
2022-10-17T03:57:57.387Z,83.75
2022-10-17T04:00:25.550Z,83.58
2022-10-17T04:02:54.397Z,83.65
2022-10-17T04:05:22.624Z,83.22
2022-10-17T04:07:51.128Z,82.85
2022-10-17T04:10:19.244Z,83.88
2022-10-17T04:12:48.971Z,83.86
2022-10-17T04:15:16.967Z,83.40
2022-10-17T04:17:45.807Z,84.07
2022-10-17T04:20:14.925Z,84.37
2022-10-17T04:22:42.997Z,84.03
2022-10-17T04:25:11.069Z,83.41
2022-10-17T04:27:39.316Z,84.13
2022-10-17T04:30:10.559Z,84.23
2022-10-17T04:32:40.179Z,83.37
2022-10-17T04:35:09.041Z,82.55
2022-10-17T04:37:37.041Z,82.25
2022-10-17T04:40:05.758Z,82.03
2022-10-17T04:42:33.928Z,82.27
2022-10-17T04:45:01.874Z,82.52
2022-10-17T04:47:31.730Z,82.94
2022-10-17T04:49:59.692Z,83.22
2022-10-17T04:52:28.000Z,83.03
2022-10-17T04:54:56.474Z,82.02
2022-10-17T04:57:24.965Z,81.83
2022-10-17T04:59:53.044Z,82.09
2022-10-17T05:02:21.096Z,82.13
2022-10-17T05:04:50.536Z,82.68
2022-10-17T05:07:18.510Z,82.38
2022-10-17T05:09:46.568Z,81.28
2022-10-17T05:12:14.605Z,82.35
2022-10-17T05:14:42.656Z,81.73
2022-10-17T05:17:10.653Z,82.29
2022-10-17T05:19:38.829Z,82.90
2022-10-17T05:22:08.503Z,82.10
2022-10-17T05:24:36.545Z,81.98
2022-10-17T05:27:04.647Z,82.24
2022-10-17T05:29:32.645Z,80.99
2022-10-17T05:34:35.230Z,80.31
2022-10-17T05:37:03.361Z,81.08
2022-10-17T05:39:32.718Z,81.01
2022-10-17T05:42:00.721Z,80.47
2022-10-17T05:44:28.837Z,79.51
2022-10-17T05:46:57.088Z,79.36
2022-10-17T05:49:33.350Z,80.72
2022-10-17T05:52:12.063Z,80.86
2022-10-17T05:54:41.418Z,79.93
2022-10-17T05:57:09.552Z,79.44
2022-10-17T05:59:37.618Z,79.03
2022-10-17T06:02:05.797Z,80.30
2022-10-17T06:04:34.398Z,79.28
2022-10-17T06:07:02.458Z,79.00
2022-10-17T06:09:30.560Z,78.16
2022-10-17T06:12:00.593Z,77.69
2022-10-17T06:14:28.574Z,77.00
2022-10-17T06:16:56.543Z,76.40
2022-10-17T06:19:24.602Z,76.19
2022-10-17T06:21:52.512Z,76.13
2022-10-17T06:24:20.531Z,76.61
2022-10-17T06:26:50.016Z,75.77
2022-10-17T06:29:19.318Z,75.20
2022-10-17T06:31:47.389Z,74.90
2022-10-17T06:34:15.436Z,74.28
2022-10-17T06:36:43.990Z,74.21
2022-10-17T06:39:11.949Z,74.26
2022-10-17T06:41:41.202Z,73.05
2022-10-17T06:44:11.415Z,73.01
2022-10-17T06:46:42.218Z,72.60
2022-10-17T06:49:11.686Z,72.76
2022-10-17T06:51:40.581Z,72.67
2022-10-17T06:54:08.844Z,71.89
2022-10-17T06:56:36.885Z,72.04
2022-10-17T06:59:05.330Z,72.20
2022-10-17T07:01:34.358Z,71.61
2022-10-17T07:04:04.364Z,70.95
2022-10-17T07:06:32.917Z,70.00
2022-10-17T07:09:02.949Z,69.64
2022-10-17T07:11:31.255Z,69.59
2022-10-17T07:13:59.652Z,69.89
2022-10-17T07:16:27.854Z,69.89
2022-10-17T07:18:56.970Z,70.28
2022-10-17T07:21:26.672Z,70.01
2022-10-17T07:23:54.908Z,69.07
2022-10-17T07:26:23.797Z,69.04
2022-10-17T07:28:56.350Z,68.94
2022-10-17T07:31:24.864Z,69.25
2022-10-17T07:33:53.334Z,69.23
2022-10-17T07:36:21.591Z,68.83
2022-10-17T07:38:51.210Z,68.99
2022-10-17T07:41:21.727Z,68.38
2022-10-17T07:43:50.354Z,68.01
2022-10-17T07:46:18.495Z,68.35
2022-10-17T07:48:46.580Z,67.76
2022-10-17T07:51:15.042Z,67.01
2022-10-17T07:53:46.531Z,66.69
2022-10-17T07:56:18.579Z,66.09
2022-10-17T07:58:48.369Z,64.90
2022-10-17T08:01:16.479Z,64.26
2022-10-17T08:03:45.702Z,63.50
2022-10-17T08:06:14.313Z,63.34
2022-10-17T08:08:42.866Z,62.61
2022-10-17T08:11:12.814Z,61.79
2022-10-17T08:13:43.366Z,62.16
2022-10-17T08:16:13.856Z,62.38
2022-10-17T08:18:44.457Z,61.07
2022-10-17T08:21:14.414Z,60.95
2022-10-17T08:23:42.379Z,60.55
2022-10-17T08:26:13.563Z,59.32
2022-10-17T08:28:43.339Z,59.58
2022-10-17T08:31:13.909Z,59.39
2022-10-17T08:33:42.834Z,59.53
2022-10-17T08:36:11.257Z,58.99
2022-10-17T08:38:43.141Z,59.03
2022-10-17T08:41:18.372Z,58.80
2022-10-17T08:44:04.973Z,58.00
2022-10-17T08:46:37.150Z,57.73
2022-10-17T08:49:21.021Z,56.54
2022-10-17T08:51:54.634Z,56.82
2022-10-17T08:54:34.116Z,56.31
2022-10-17T08:57:02.330Z,55.42
2022-10-17T08:59:33.477Z,55.04
2022-10-17T09:02:05.581Z,54.83
2022-10-17T09:04:47.329Z,54.94
2022-10-17T09:07:23.575Z,53.41
2022-10-17T09:10:00.594Z,53.44
2022-10-17T09:12:41.688Z,53.17
2022-10-17T09:15:26.653Z,53.49
2022-10-17T09:17:57.735Z,52.22
2022-10-17T09:20:29.703Z,50.90
2022-10-17T09:23:01.163Z,51.14
2022-10-17T09:25:29.746Z,51.34
2022-10-17T09:28:16.914Z,50.83
2022-10-17T09:30:48.658Z,49.73
2022-10-17T09:33:34.291Z,49.56
2022-10-17T09:36:07.843Z,47.85
2022-10-17T09:38:40.878Z,47.75
2022-10-17T09:44:20.002Z,47.16
2022-10-17T09:47:06.921Z,46.00
2022-10-17T09:49:38.426Z,46.80
2022-10-17T09:52:11.902Z,44.75
2022-10-17T09:54:45.221Z,45.76
2022-10-17T09:57:14.779Z,44.20
2022-10-17T09:59:45.297Z,44.06
2022-10-17T10:02:21.273Z,43.36
2022-10-17T10:05:06.753Z,43.63
2022-10-17T10:07:37.765Z,43.02
2022-10-17T10:10:08.385Z,42.14
2022-10-17T10:12:39.033Z,40.35
2022-10-17T10:15:35.117Z,39.62
2022-10-17T10:18:04.920Z,39.93
2022-10-17T10:20:35.949Z,39.92
2022-10-17T10:23:12.092Z,40.88
2022-10-17T10:25:50.148Z,39.16
2022-10-17T10:28:19.871Z,38.49
2022-10-17T10:30:51.169Z,37.37
2022-10-17T10:33:23.251Z,36.95
2022-10-17T10:35:57.323Z,36.11
2022-10-17T10:38:25.665Z,36.51
2022-10-17T10:40:56.876Z,34.98
2022-10-17T10:43:36.759Z,36.20
2022-10-17T10:46:16.822Z,36.16
2022-10-17T10:48:54.931Z,36.15
2022-10-17T10:51:28.934Z,35.60
2022-10-17T10:54:04.379Z,35.33
2022-10-17T10:56:38.911Z,35.58
2022-10-17T10:59:15.001Z,35.53
2022-10-17T11:01:49.361Z,35.67
2022-10-17T11:04:28.722Z,35.08
2022-10-17T11:07:02.788Z,35.76
2022-10-17T11:09:42.184Z,36.49
2022-10-17T11:12:16.120Z,36.06
2022-10-17T11:14:48.208Z,36.34
2022-10-17T11:17:29.020Z,36.09
2022-10-17T11:20:12.533Z,35.73
2022-10-17T11:22:45.717Z,35.58
2022-10-17T11:25:30.297Z,35.21
2022-10-17T11:28:02.293Z,35.79
2022-10-17T11:30:46.688Z,35.91
2022-10-17T11:33:19.817Z,36.27
2022-10-17T11:35:53.078Z,35.49
2022-10-17T11:38:26.934Z,36.35
2022-10-17T11:40:58.981Z,36.54
2022-10-17T11:43:32.544Z,36.91
2022-10-17T11:46:14.925Z,36.52
2022-10-17T11:48:48.713Z,36.55
2022-10-17T11:54:13.005Z,36.45
2022-10-17T11:56:45.827Z,36.82
2022-10-17T11:59:49.097Z,36.01
2022-10-17T12:02:28.784Z,35.08
2022-10-17T12:05:05.742Z,35.21
2022-10-17T12:10:26.008Z,35.71
2022-10-17T12:12:54.489Z,35.79
2022-10-17T12:15:30.433Z,35.90
2022-10-17T12:18:02.694Z,35.64
2022-10-17T12:20:36.938Z,35.26
2022-10-17T12:23:24.787Z,35.56
2022-10-17T12:25:57.099Z,34.93
2022-10-17T12:28:31.584Z,35.07
2022-10-17T12:31:03.013Z,35.04
2022-10-17T12:33:36.757Z,34.96
2022-10-17T12:36:39.001Z,34.83
2022-10-17T12:39:49.315Z,35.22
2022-10-17T12:42:51.215Z,34.87
2022-10-17T12:45:51.577Z,35.29
2022-10-17T12:49:13.594Z,34.52
2022-10-17T12:52:21.758Z,35.59
2022-10-17T12:55:00.580Z,35.04
2022-10-17T12:57:45.306Z,34.86
2022-10-17T13:00:22.902Z,34.96
2022-10-17T13:02:53.282Z,34.94
2022-10-17T13:05:28.861Z,34.67
2022-10-17T13:08:00.164Z,34.68
2022-10-17T13:10:30.238Z,34.53
2022-10-17T13:13:07.124Z,34.78
2022-10-17T13:15:38.322Z,34.79
2022-10-17T13:18:06.748Z,35.25
2022-10-17T13:20:34.963Z,35.03
2022-10-17T13:23:03.802Z,34.40
2022-10-17T13:25:31.856Z,34.89
2022-10-17T13:28:14.730Z,34.62
2022-10-17T13:30:49.729Z,34.70
2022-10-17T13:33:32.090Z,34.48
2022-10-17T13:36:01.539Z,34.89
2022-10-17T13:38:35.714Z,35.20
2022-10-17T13:44:03.589Z,35.42
2022-10-17T13:46:39.530Z,35.83
2022-10-17T13:49:25.737Z,35.50
2022-10-17T13:51:56.266Z,35.76
2022-10-17T13:54:35.601Z,35.21
2022-10-17T13:57:06.028Z,34.67
2022-10-17T13:59:40.044Z,35.27
2022-10-17T14:02:15.724Z,35.73
2022-10-17T14:05:15.531Z,36.36
2022-10-17T14:08:05.519Z,36.50
2022-10-17T14:10:28.622Z,36.59
2022-10-17T14:12:57.474Z,37.04
2022-10-17T14:15:28.321Z,35.56
2022-10-17T14:18:04.234Z,35.83
2022-10-17T14:23:37.201Z,36.75
2022-10-17T14:26:12.047Z,36.49
2022-10-17T14:28:40.779Z,36.75
2022-10-17T14:31:33.594Z,37.65
2022-10-17T14:34:05.738Z,38.38
2022-10-17T14:36:38.696Z,37.98
2022-10-17T14:39:14.148Z,38.02
2022-10-17T14:41:45.592Z,38.02
2022-10-17T14:44:23.608Z,38.28
2022-10-17T14:46:55.555Z,38.74
2022-10-17T14:49:32.606Z,38.71
2022-10-17T14:52:27.439Z,38.54
2022-10-17T14:54:55.876Z,39.33
2022-10-17T14:57:27.660Z,39.73
2022-10-17T14:59:57.410Z,40.70
2022-10-17T15:02:26.659Z,41.83
2022-10-17T15:04:56.486Z,41.36
2022-10-17T15:07:24.821Z,41.75
2022-10-17T15:09:54.624Z,41.67
2022-10-17T15:12:25.206Z,41.73
2022-10-17T15:14:54.749Z,42.15
2022-10-17T15:17:26.069Z,41.46
2022-10-17T15:19:54.374Z,42.25
2022-10-17T15:22:24.075Z,42.55
2022-10-17T15:24:52.077Z,42.54
2022-10-17T15:27:21.996Z,42.87
2022-10-17T15:29:50.766Z,42.76
2022-10-17T15:32:18.816Z,42.95
2022-10-17T15:34:46.957Z,43.09
2022-10-17T15:37:20.973Z,43.48
2022-10-17T15:39:53.659Z,44.09
2022-10-17T15:42:23.194Z,43.78
2022-10-17T15:44:51.509Z,44.50
2022-10-17T15:47:28.373Z,45.31
2022-10-17T15:49:57.036Z,45.55
2022-10-17T15:52:25.489Z,45.41
2022-10-17T15:54:57.315Z,46.29
2022-10-17T15:57:30.033Z,46.10
2022-10-17T16:00:00.264Z,46.83
2022-10-17T16:02:28.838Z,46.55
2022-10-17T16:04:56.816Z,46.75
2022-10-17T16:07:24.813Z,47.24
2022-10-17T16:09:54.378Z,47.23
2022-10-17T16:12:29.014Z,47.42
2022-10-17T16:14:57.382Z,47.47
2022-10-17T16:17:25.517Z,47.65
2022-10-17T16:19:53.517Z,47.64
2022-10-17T16:22:28.962Z,48.12
2022-10-17T16:25:07.517Z,48.12
2022-10-17T16:27:36.591Z,49.00
2022-10-17T16:30:06.278Z,49.38
2022-10-17T16:32:34.979Z,50.01
2022-10-17T16:35:03.271Z,50.28
2022-10-17T16:37:31.412Z,50.24
2022-10-17T16:40:00.872Z,50.44
2022-10-17T16:42:29.308Z,51.13
2022-10-17T16:44:57.838Z,51.34
2022-10-17T16:47:25.890Z,51.67
2022-10-17T16:49:54.026Z,52.50
2022-10-17T16:52:22.316Z,52.39
2022-10-17T16:54:51.018Z,51.96
2022-10-17T16:57:20.502Z,52.37
2022-10-17T16:59:48.656Z,54.23
2022-10-17T17:02:21.187Z,55.92
2022-10-17T17:04:49.757Z,55.75
2022-10-17T17:07:18.900Z,56.28
2022-10-17T17:09:47.973Z,56.73
2022-10-17T17:12:16.384Z,56.76
2022-10-17T17:14:46.328Z,56.60
2022-10-17T17:17:24.408Z,57.06
2022-10-17T17:20:02.446Z,57.45
2022-10-17T17:22:30.594Z,57.67
2022-10-17T17:24:58.695Z,57.64
2022-10-17T17:27:29.755Z,57.38
2022-10-17T17:29:59.375Z,56.77
2022-10-17T17:32:27.571Z,56.80
2022-10-17T17:34:55.541Z,59.23
2022-10-17T17:37:23.617Z,59.41
2022-10-17T17:39:51.677Z,58.64
2022-10-17T17:42:20.544Z,58.50
2022-10-17T17:44:49.636Z,57.91
2022-10-17T17:47:19.341Z,57.83
2022-10-17T17:49:47.416Z,58.42
2022-10-17T17:52:15.492Z,58.83
2022-10-17T17:54:43.467Z,58.68
2022-10-17T17:57:12.974Z,58.66
2022-10-17T17:59:41.806Z,58.26
2022-10-17T18:02:11.087Z,58.45
2022-10-17T18:04:40.597Z,58.73
2022-10-17T18:07:08.609Z,58.72
2022-10-17T18:09:36.832Z,58.92
2022-10-17T18:12:05.595Z,58.65
2022-10-17T18:14:33.630Z,58.61
2022-10-17T18:17:01.743Z,60.46
2022-10-17T18:19:29.956Z,57.96
2022-10-17T18:21:59.946Z,58.37
2022-10-17T18:24:27.876Z,58.51
2022-10-17T18:27:00.035Z,58.05
2022-10-17T18:29:29.474Z,58.32
2022-10-17T18:31:57.565Z,57.45
2022-10-17T18:34:25.794Z,57.67
2022-10-17T18:36:54.353Z,57.13
2022-10-17T18:39:24.187Z,56.52
2022-10-17T18:41:52.847Z,55.91
2022-10-17T18:44:21.161Z,55.99
2022-10-17T18:46:50.009Z,56.66
2022-10-17T18:49:19.988Z,57.38
2022-10-17T18:51:48.721Z,57.90
2022-10-17T18:54:20.549Z,57.51
2022-10-17T18:56:51.067Z,57.78
2022-10-17T18:59:19.476Z,57.27
2022-10-17T19:01:48.299Z,57.14
2022-10-17T19:04:17.056Z,56.61
2022-10-17T19:06:45.841Z,55.69
2022-10-17T19:09:16.343Z,57.09
2022-10-17T19:11:45.029Z,58.09
2022-10-17T19:14:15.059Z,57.45
2022-10-17T19:16:45.054Z,58.31
2022-10-17T19:19:14.956Z,57.67
2022-10-17T19:21:43.856Z,57.47
2022-10-17T19:24:15.943Z,58.40
2022-10-17T19:26:45.547Z,58.90
2022-10-17T19:29:17.015Z,58.32
2022-10-17T19:31:45.895Z,58.81
2022-10-17T19:34:15.647Z,58.80
2022-10-17T19:36:44.085Z,59.17
2022-10-17T19:39:14.275Z,60.43
2022-10-17T19:41:43.021Z,61.17
2022-10-17T19:44:11.594Z,60.66
2022-10-17T19:46:41.598Z,60.12
2022-10-17T19:49:09.700Z,61.47
2022-10-17T19:51:39.647Z,62.60
2022-10-17T19:54:08.115Z,61.41
2022-10-17T19:56:38.359Z,61.84
2022-10-17T19:59:07.180Z,61.62
2022-10-17T20:01:38.745Z,61.63
2022-10-17T20:04:10.755Z,61.20
2022-10-17T20:06:39.647Z,61.91
2022-10-17T20:09:10.983Z,62.55
2022-10-17T20:11:42.416Z,65.12
2022-10-17T20:14:10.300Z,64.08
2022-10-17T20:16:38.383Z,63.93
2022-10-17T20:19:09.760Z,64.76
2022-10-17T20:21:39.702Z,64.17
2022-10-17T20:24:10.249Z,64.04
2022-10-17T20:26:39.651Z,65.56
2022-10-17T20:29:12.488Z,65.32
2022-10-17T20:31:42.751Z,66.09
2022-10-17T20:34:14.843Z,65.59
2022-10-17T20:36:43.554Z,64.92
2022-10-17T20:39:13.578Z,64.32
2022-10-17T20:41:41.864Z,65.38
2022-10-17T20:44:10.390Z,65.56
2022-10-17T20:46:44.772Z,66.47
2022-10-17T20:49:22.765Z,67.11
2022-10-17T20:51:50.784Z,66.67
2022-10-17T20:54:18.837Z,66.80
2022-10-17T20:56:46.922Z,66.98
2022-10-17T20:59:17.161Z,67.61
2022-10-17T21:01:46.314Z,67.82
2022-10-17T21:04:44.200Z,67.61
2022-10-17T21:07:05.553Z,68.98
2022-10-17T21:09:33.748Z,69.08
2022-10-17T21:12:03.691Z,68.54
2022-10-17T21:14:31.952Z,68.94
2022-10-17T21:17:04.708Z,69.78
2022-10-17T21:19:33.371Z,68.77
2022-10-17T21:22:01.522Z,68.23
2022-10-17T21:24:31.694Z,68.50
2022-10-17T21:26:59.778Z,69.19
2022-10-17T21:29:28.199Z,69.85
2022-10-17T21:31:56.138Z,69.75
2022-10-17T21:34:25.560Z,68.96
2022-10-17T21:36:53.921Z,70.14
2022-10-17T21:39:24.207Z,69.51
2022-10-17T21:41:54.233Z,70.50
2022-10-17T21:44:24.308Z,70.67
2022-10-17T21:46:53.131Z,70.42
2022-10-17T21:49:22.551Z,69.96
2022-10-17T21:51:51.970Z,70.29
2022-10-17T21:54:21.505Z,70.48
2022-10-17T21:56:49.900Z,71.57
2022-10-17T21:59:19.592Z,70.29
2022-10-17T22:01:47.776Z,70.13
2022-10-17T22:04:18.766Z,69.84
2022-10-17T22:06:51.191Z,70.02
2022-10-17T22:09:23.465Z,70.80
2022-10-17T22:11:53.056Z,70.53
2022-10-17T22:14:24.320Z,70.53
2022-10-17T22:16:52.636Z,70.31
2022-10-17T22:19:22.772Z,70.51
2022-10-17T22:21:51.426Z,70.62
2022-10-17T22:26:49.935Z,71.12
2022-10-17T22:29:18.707Z,70.64
2022-10-17T22:31:48.414Z,72.14
2022-10-17T22:34:17.991Z,71.93
2022-10-17T22:36:47.788Z,72.63
2022-10-17T22:39:16.178Z,72.05
2022-10-17T22:41:44.192Z,71.61
2022-10-17T22:44:12.197Z,72.37
2022-10-17T22:46:40.277Z,72.51
2022-10-17T22:49:09.693Z,71.82
2022-10-17T22:51:37.717Z,71.55
2022-10-17T22:54:05.827Z,71.49
2022-10-17T22:56:33.969Z,71.31
2022-10-17T22:59:02.040Z,71.67
2022-10-17T23:01:30.132Z,72.23
2022-10-17T23:03:58.110Z,72.04
2022-10-17T23:06:27.483Z,72.71
2022-10-17T23:08:55.619Z,71.75
2022-10-17T23:11:23.683Z,71.50
2022-10-17T23:13:52.013Z,72.36
2022-10-17T23:16:19.990Z,70.93
2022-10-17T23:18:48.009Z,71.73
2022-10-17T23:21:15.980Z,72.51
2022-10-17T23:23:45.514Z,72.50
2022-10-17T23:26:14.922Z,72.05
2022-10-17T23:28:44.170Z,71.83
2022-10-17T23:31:14.286Z,71.46
2022-10-17T23:33:42.750Z,71.50
2022-10-17T23:36:11.641Z,71.58
2022-10-17T23:38:39.823Z,72.44
2022-10-17T23:41:09.635Z,72.78
2022-10-17T23:43:38.298Z,72.83
2022-10-17T23:46:07.582Z,72.55
2022-10-17T23:48:35.506Z,73.75
2022-10-17T23:51:03.496Z,74.00
2022-10-17T23:53:31.626Z,73.56
2022-10-17T23:55:59.615Z,74.23
2022-10-17T23:58:29.070Z,73.62
